^^
Saratoga-Weather Station Historical Data
Daily Summary for May 15, 2021 Units:  Both    English   Metric
Daily Weekly Monthly Yearly Custom
  High: Low: Average:
Temperature: 54.5 °F /  12.5 °C 48 °F /  8.9 °C 50.7 °F /  10.4 °C
Dew Point: 49.8 °F /  9.9 °C 46 °F /  7.8 °C 47.5 °F /  8.6 °C
Humidity: 93% 79% 89%
Wind Speed: 10.1mph /  16.3km/h - 1.3mph /  2.1km/h
Wind Gust: 12mph /  19.3km/h - -
Wind- - South
Pressure: 29.8 in /  1008.5 hPa 29.6 in /  1002.4 hPa -
Precipitation: 0.12 in /  3.0 mm    
Historical Graphs
 
 
Tabular Data for May 15, 2021
Time Temperature Dew Point Pressure Wind Wind Speed Wind Gust Humidity Rainfall Rate (Hourly) solar
00:04 50.7 °F /  10.4 °C 46.4 °F /  8 °C 29.8in /  1008.5hPa Calm   3mph /  4.8km/h 85% 0in /  0.0mm 0 W/m2
00:09 50.7 °F /  10.4 °C 46.4 °F /  8 °C 29.8in /  1008.5hPa NE 0.9mph /  1.4km/h 2mph /  3.2km/h 85% 0in /  0.0mm 0 W/m2
00:14 50.9 °F /  10.5 °C 46.6 °F /  8.1 °C 29.8in /  1008.5hPa ENE 2mph /  3.2km/h 2mph /  3.2km/h 85% 0in /  0.0mm 0 W/m2
00:19 50.9 °F /  10.5 °C 46.6 °F /  8.1 °C 29.8in /  1008.5hPa NNE 2mph /  3.2km/h 2mph /  3.2km/h 85% 0in /  0.0mm 0 W/m2
00:24 51.1 °F /  10.6 °C 47.1 °F /  8.4 °C 29.8in /  1008.5hPa NW 0.9mph /  1.4km/h 3mph /  4.8km/h 86% 0in /  0.0mm 0 W/m2
00:29 50.9 °F /  10.5 °C 46.9 °F /  8.3 °C 29.8in /  1008.5hPa ESE 2mph /  3.2km/h 4mph /  6.4km/h 86% 0in /  0.0mm 0 W/m2
00:34 50.9 °F /  10.5 °C 47.1 °F /  8.4 °C 29.8in /  1008.5hPa North 2mph /  3.2km/h 2mph /  3.2km/h 87% 0in /  0.0mm 0 W/m2
00:39 50.7 °F /  10.4 °C 46.9 °F /  8.3 °C 29.8in /  1008.5hPa NNW 0.9mph /  1.4km/h 3mph /  4.8km/h 87% 0in /  0.0mm 0 W/m2
00:44 50.7 °F /  10.4 °C 46.9 °F /  8.3 °C 29.8in /  1008.5hPa NW 0.9mph /  1.4km/h 3mph /  4.8km/h 87% 0in /  0.0mm 0 W/m2
00:49 50.7 °F /  10.4 °C 47.3 °F /  8.5 °C 29.8in /  1008.5hPa NNW 0.9mph /  1.4km/h 2mph /  3.2km/h 88% 0in /  0.0mm 0 W/m2
00:54 50.7 °F /  10.4 °C 47.3 °F /  8.5 °C 29.8in /  1008.5hPa NNE 0.9mph /  1.4km/h 3mph /  4.8km/h 88% 0in /  0.0mm 0 W/m2
00:59 50.7 °F /  10.4 °C 47.3 °F /  8.5 °C 29.8in /  1008.5hPa West 0.9mph /  1.4km/h 12mph /  19.3km/h 88% 0in /  0.0mm 0 W/m2
01:04 50.5 °F /  10.3 °C 47.1 °F /  8.4 °C 29.8in /  1008.5hPa Calm   4mph /  6.4km/h 88% 0.01in /  0.2mm 0 W/m2
01:09 50.5 °F /  10.3 °C 47.5 °F /  8.6 °C 29.8in /  1008.5hPa SSE 0.9mph /  1.4km/h 12mph /  19.3km/h 89% 0.02in /  0.5mm 0 W/m2
01:14 50.4 °F /  10.2 °C 47.3 °F /  8.5 °C 29.8in /  1008.1hPa Calm   2mph /  3.2km/h 89% 0.02in /  0.5mm 0 W/m2
01:19 50.2 °F /  10.1 °C 47.1 °F /  8.4 °C 29.8in /  1008.5hPa NW 0.9mph /  1.4km/h 3mph /  4.8km/h 89% 0.03in /  0.8mm 0 W/m2
01:24 50.2 °F /  10.1 °C 47.3 °F /  8.5 °C 29.8in /  1008.1hPa NNW 0.9mph /  1.4km/h 3mph /  4.8km/h 90% 0.03in /  0.8mm 0 W/m2
01:29 50 °F /  10 °C 47.1 °F /  8.4 °C 29.8in /  1008.1hPa NW 4mph /  6.4km/h 5mph /  8km/h 90% 0.03in /  0.8mm 0 W/m2
01:34 49.8 °F /  9.9 °C 47.3 °F /  8.5 °C 29.8in /  1008.1hPa Calm     91% 0.03in /  0.8mm 0 W/m2
01:39 49.8 °F /  9.9 °C 47.3 °F /  8.5 °C 29.8in /  1008.1hPa Calm   3mph /  4.8km/h 91% 0.03in /  0.8mm 0 W/m2
01:44 49.6 °F /  9.8 °C 47.1 °F /  8.4 °C 29.8in /  1008.1hPa ESE 2mph /  3.2km/h 2mph /  3.2km/h 91% 0.03in /  0.8mm 0 W/m2
01:49 49.6 °F /  9.8 °C 47.1 °F /  8.4 °C 29.8in /  1008.1hPa WSW 0.9mph /  1.4km/h 2mph /  3.2km/h 91% 0.03in /  0.8mm 0 W/m2
01:54 49.6 °F /  9.8 °C 47.5 °F /  8.6 °C 29.8in /  1008.1hPa Calm   2mph /  3.2km/h 92% 0.03in /  0.8mm 0 W/m2
01:59 49.6 °F /  9.8 °C 47.5 °F /  8.6 °C 29.8in /  1008.1hPa NE 0.9mph /  1.4km/h 5mph /  8km/h 92% 0.05in /  1.3mm 0 W/m2
02:04 49.6 °F /  9.8 °C 47.5 °F /  8.6 °C 29.8in /  1008.1hPa Calm   2mph /  3.2km/h 92% 0.06in /  1.5mm 0 W/m2
02:09 49.6 °F /  9.8 °C 47.5 °F /  8.6 °C 29.8in /  1008.1hPa NNW 4.9mph /  7.9km/h 6mph /  9.7km/h 92% 0.06in /  1.5mm 0 W/m2
02:14 49.6 °F /  9.8 °C 47.5 °F /  8.6 °C 29.8in /  1008.1hPa West 0.9mph /  1.4km/h 2mph /  3.2km/h 92% 0.06in /  1.5mm 0 W/m2
02:19 49.6 °F /  9.8 °C 47.5 °F /  8.6 °C 29.8in /  1008.1hPa WNW 0.9mph /  1.4km/h 6mph /  9.7km/h 92% 0.05in /  1.3mm 0 W/m2
02:24 49.6 °F /  9.8 °C 47.5 °F /  8.6 °C 29.8in /  1008.1hPa WNW 2mph /  3.2km/h 3mph /  4.8km/h 92% 0.05in /  1.3mm 0 W/m2
02:29 49.6 °F /  9.8 °C 47.5 °F /  8.6 °C 29.8in /  1008.1hPa SW 0.9mph /  1.4km/h 1mph /  1.6km/h 92% 0.05in /  1.3mm 0 W/m2
02:34 49.6 °F /  9.8 °C 47.5 °F /  8.6 °C 29.8in /  1007.8hPa NW 0.9mph /  1.4km/h 2mph /  3.2km/h 92% 0.05in /  1.3mm 0 W/m2
02:40 49.6 °F /  9.8 °C 47.5 °F /  8.6 °C 29.8in /  1007.8hPa NNW 0.9mph /  1.4km/h 2mph /  3.2km/h 92% 0.05in /  1.3mm 0 W/m2
02:45 49.6 °F /  9.8 °C 47.5 °F /  8.6 °C 29.8in /  1007.8hPa WNW 2mph /  3.2km/h 4mph /  6.4km/h 92% 0.05in /  1.3mm 0 W/m2
02:50 49.6 °F /  9.8 °C 47.5 °F /  8.6 °C 29.8in /  1007.8hPa NW 2.9mph /  4.7km/h 4mph /  6.4km/h 92% 0.05in /  1.3mm 0 W/m2
02:55 49.5 °F /  9.7 °C 47.3 °F /  8.5 °C 29.8in /  1007.8hPa NE 0.9mph /  1.4km/h 2mph /  3.2km/h 92% 0.05in /  1.3mm 0 W/m2
03:00 49.5 °F /  9.7 °C 47.3 °F /  8.5 °C 29.8in /  1007.8hPa West 0.9mph /  1.4km/h 4mph /  6.4km/h 92% 0.02in /  0.5mm 0 W/m2
03:05 49.5 °F /  9.7 °C 47.3 °F /  8.5 °C 29.8in /  1007.8hPa WNW 0.9mph /  1.4km/h 2mph /  3.2km/h 92% 0.02in /  0.5mm 0 W/m2
03:10 49.3 °F /  9.6 °C 47.1 °F /  8.4 °C 29.8in /  1007.8hPa WNW 4mph /  6.4km/h 4mph /  6.4km/h 92% 0.01in /  0.2mm 0 W/m2
03:15 49.3 °F /  9.6 °C 47.1 °F /  8.4 °C 29.8in /  1007.8hPa NW 2mph /  3.2km/h 4mph /  6.4km/h 92% 0in /  0.0mm 0 W/m2
03:20 49.5 °F /  9.7 °C 47.3 °F /  8.5 °C 29.8in /  1007.8hPa West 0.9mph /  1.4km/h 5mph /  8km/h 92% 0in /  0.0mm 0 W/m2
03:25 49.5 °F /  9.7 °C 47.3 °F /  8.5 °C 29.8in /  1007.8hPa WNW 0.9mph /  1.4km/h 3mph /  4.8km/h 92% 0in /  0.0mm 0 W/m2
03:30 49.5 °F /  9.7 °C 46.9 °F /  8.3 °C 29.8in /  1007.8hPa Calm   4mph /  6.4km/h 91% 0in /  0.0mm 0 W/m2
03:35 49.5 °F /  9.7 °C 46.9 °F /  8.3 °C 29.8in /  1007.8hPa Calm   2mph /  3.2km/h 91% 0in /  0.0mm 0 W/m2
03:40 49.5 °F /  9.7 °C 46.9 °F /  8.3 °C 29.8in /  1007.8hPa NW 2mph /  3.2km/h 4mph /  6.4km/h 91% 0in /  0.0mm 0 W/m2
03:45 49.3 °F /  9.6 °C 46.8 °F /  8.2 °C 29.8in /  1007.8hPa North 2.9mph /  4.7km/h 7mph /  11.3km/h 91% 0in /  0.0mm 0 W/m2
03:50 49.3 °F /  9.6 °C 46.8 °F /  8.2 °C 29.8in /  1007.8hPa NW 2mph /  3.2km/h 4mph /  6.4km/h 91% 0in /  0.0mm 0 W/m2
03:55 49.1 °F /  9.5 °C 46.6 °F /  8.1 °C 29.8in /  1007.8hPa Calm   6mph /  9.7km/h 91% 0in /  0.0mm 0 W/m2
04:00 48.9 °F /  9.4 °C 46.4 °F /  8 °C 29.8in /  1007.8hPa West 2.9mph /  4.7km/h 9mph /  14.5km/h 91% 0in /  0.0mm 0 W/m2
04:05 48.7 °F /  9.3 °C 46.6 °F /  8.1 °C 29.8in /  1007.8hPa Calm   2mph /  3.2km/h 92% 0in /  0.0mm 0 W/m2
04:10 48.6 °F /  9.2 °C 46 °F /  7.8 °C 29.8in /  1007.8hPa Calm   9mph /  14.5km/h 91% 0in /  0.0mm 0 W/m2
04:15 48.4 °F /  9.1 °C 46.2 °F /  7.9 °C 29.8in /  1007.8hPa Calm   3mph /  4.8km/h 92% 0in /  0.0mm 0 W/m2
04:20 48.4 °F /  9.1 °C 46.2 °F /  7.9 °C 29.8in /  1007.5hPa WSW 0.9mph /  1.4km/h 1mph /  1.6km/h 92% 0in /  0.0mm 0 W/m2
04:25 48.4 °F /  9.1 °C 46.2 °F /  7.9 °C 29.8in /  1007.8hPa Calm     92% 0in /  0.0mm 0 W/m2
04:30 48.4 °F /  9.1 °C 46.4 °F /  8 °C 29.8in /  1007.8hPa Calm   1mph /  1.6km/h 93% 0in /  0.0mm 0 W/m2
04:35 48.4 °F /  9.1 °C 46.4 °F /  8 °C 29.8in /  1007.5hPa NW 0.9mph /  1.4km/h 2mph /  3.2km/h 93% 0in /  0.0mm 0 W/m2
04:40 48.4 °F /  9.1 °C 46.4 °F /  8 °C 29.8in /  1007.5hPa Calm     93% 0in /  0.0mm 0 W/m2
04:45 48.4 °F /  9.1 °C 46.4 °F /  8 °C 29.8in /  1007.5hPa Calm   3mph /  4.8km/h 93% 0in /  0.0mm 0 W/m2
04:50 48.4 °F /  9.1 °C 46.4 °F /  8 °C 29.8in /  1007.5hPa Calm   2mph /  3.2km/h 93% 0in /  0.0mm 0 W/m2
04:55 48.4 °F /  9.1 °C 46.4 °F /  8 °C 29.8in /  1007.5hPa East 2mph /  3.2km/h 3mph /  4.8km/h 93% 0in /  0.0mm 0 W/m2
05:00 48.4 °F /  9.1 °C 46.4 °F /  8 °C 29.8in /  1007.5hPa East 2mph /  3.2km/h 2mph /  3.2km/h 93% 0in /  0.0mm 0 W/m2
05:05 48.4 °F /  9.1 °C 46.4 °F /  8 °C 29.8in /  1007.5hPa Calm   3mph /  4.8km/h 93% 0.01in /  0.2mm 0 W/m2
05:10 48.4 °F /  9.1 °C 46.4 °F /  8 °C 29.8in /  1007.5hPa East 2mph /  3.2km/h 2mph /  3.2km/h 93% 0.01in /  0.2mm 0 W/m2
05:15 48.4 °F /  9.1 °C 46.4 °F /  8 °C 29.8in /  1007.5hPa East 3mph /  4.8km/h 3mph /  4.8km/h 93% 0.01in /  0.2mm 0 W/m2
05:20 48.4 °F /  9.1 °C 46.4 °F /  8 °C 29.8in /  1007.5hPa Calm   1mph /  1.6km/h 93% 0.01in /  0.2mm 0 W/m2
05:25 48.4 °F /  9.1 °C 46.4 °F /  8 °C 29.8in /  1007.5hPa WSW 2mph /  3.2km/h 3mph /  4.8km/h 93% 0.01in /  0.2mm 0 W/m2
05:30 48.4 °F /  9.1 °C 46.4 °F /  8 °C 29.8in /  1007.5hPa Calm   1mph /  1.6km/h 93% 0.01in /  0.2mm 0 W/m2
05:35 48.2 °F /  9 °C 46.2 °F /  7.9 °C 29.8in /  1007.5hPa NW 0.9mph /  1.4km/h 3mph /  4.8km/h 93% 0.01in /  0.2mm 0 W/m2
05:40 48 °F /  8.9 °C 46 °F /  7.8 °C 29.8in /  1007.5hPa Calm   1mph /  1.6km/h 93% 0.01in /  0.2mm 0 W/m2
05:45 48 °F /  8.9 °C 46 °F /  7.8 °C 29.8in /  1007.5hPa NW 2mph /  3.2km/h 3mph /  4.8km/h 93% 0.01in /  0.2mm 0 W/m2
05:50 48 °F /  8.9 °C 46 °F /  7.8 °C 29.8in /  1007.5hPa Calm   2mph /  3.2km/h 93% 0.01in /  0.2mm 0 W/m2
05:55 48 °F /  8.9 °C 46 °F /  7.8 °C 29.8in /  1007.5hPa Calm   3mph /  4.8km/h 93% 0.01in /  0.2mm 0 W/m2
06:00 48 °F /  8.9 °C 46 °F /  7.8 °C 29.8in /  1007.5hPa Calm     93% 0.01in /  0.2mm 0 W/m2
06:05 48.2 °F /  9 °C 46.2 °F /  7.9 °C 29.7in /  1007.1hPa Calm     93% 0in /  0.0mm 0 W/m2
06:10 48.2 °F /  9 °C 46.2 °F /  7.9 °C 29.7in /  1007.1hPa Calm   1mph /  1.6km/h 93% 0in /  0.0mm 5 W/m2
06:15 48.4 °F /  9.1 °C 46.4 °F /  8 °C 29.7in /  1007.1hPa Calm   1mph /  1.6km/h 93% 0in /  0.0mm 11 W/m2
06:20 48.4 °F /  9.1 °C 46.4 °F /  8 °C 29.7in /  1007.1hPa NE 2mph /  3.2km/h 3mph /  4.8km/h 93% 0in /  0.0mm 14 W/m2
06:25 48.4 °F /  9.1 °C 46.4 °F /  8 °C 29.7in /  1007.1hPa Calm   2mph /  3.2km/h 93% 0in /  0.0mm 14 W/m2
06:30 48.6 °F /  9.2 °C 46.6 °F /  8.1 °C 29.7in /  1007.1hPa Calm   3mph /  4.8km/h 93% 0in /  0.0mm 11 W/m2
06:35 48.6 °F /  9.2 °C 46.6 °F /  8.1 °C 29.7in /  1007.1hPa NNW 0.9mph /  1.4km/h 2mph /  3.2km/h 93% 0in /  0.0mm 14 W/m2
06:40 48.6 °F /  9.2 °C 46.6 °F /  8.1 °C 29.7in /  1007.1hPa Calm   2mph /  3.2km/h 93% 0in /  0.0mm 14 W/m2
06:45 48.6 °F /  9.2 °C 46.6 °F /  8.1 °C 29.7in /  1006.8hPa Calm   3mph /  4.8km/h 93% 0in /  0.0mm 18 W/m2
06:50 48.7 °F /  9.3 °C 46.8 °F /  8.2 °C 29.7in /  1007.1hPa NE 0.9mph /  1.4km/h 2mph /  3.2km/h 93% 0in /  0.0mm 25 W/m2
06:55 48.7 °F /  9.3 °C 46.8 °F /  8.2 °C 29.7in /  1006.8hPa Calm   1mph /  1.6km/h 93% 0in /  0.0mm 30 W/m2
07:01 48.7 °F /  9.3 °C 46.8 °F /  8.2 °C 29.7in /  1006.8hPa Calm   1mph /  1.6km/h 93% 0in /  0.0mm 26 W/m2
07:06 48.9 °F /  9.4 °C 46.9 °F /  8.3 °C 29.7in /  1006.8hPa NE 0.9mph /  1.4km/h 2mph /  3.2km/h 93% 0in /  0.0mm 28 W/m2
07:11 48.9 °F /  9.4 °C 46.9 °F /  8.3 °C 29.7in /  1006.8hPa NE 2mph /  3.2km/h 2mph /  3.2km/h 93% 0in /  0.0mm 65 W/m2
07:16 49.1 °F /  9.5 °C 47.1 °F /  8.4 °C 29.7in /  1006.8hPa ENE 2mph /  3.2km/h 4mph /  6.4km/h 93% 0in /  0.0mm 60 W/m2
07:21 49.3 °F /  9.6 °C 47.3 °F /  8.5 °C 29.7in /  1006.8hPa ENE 0.9mph /  1.4km/h 3mph /  4.8km/h 93% 0in /  0.0mm 62 W/m2
07:26 49.5 °F /  9.7 °C 47.5 °F /  8.6 °C 29.7in /  1006.8hPa Calm   4mph /  6.4km/h 93% 0in /  0.0mm 49 W/m2
07:31 49.5 °F /  9.7 °C 47.3 °F /  8.5 °C 29.7in /  1006.8hPa Calm   1mph /  1.6km/h 92% 0in /  0.0mm 46 W/m2
07:36 49.6 °F /  9.8 °C 47.5 °F /  8.6 °C 29.7in /  1006.8hPa North 0.9mph /  1.4km/h 2mph /  3.2km/h 92% 0in /  0.0mm 39 W/m2
07:41 49.6 °F /  9.8 °C 47.5 °F /  8.6 °C 29.7in /  1006.8hPa ENE 2mph /  3.2km/h 5mph /  8km/h 92% 0in /  0.0mm 32 W/m2
07:46 49.6 °F /  9.8 °C 47.5 °F /  8.6 °C 29.7in /  1006.8hPa Calm     92% 0in /  0.0mm 33 W/m2
07:51 49.6 °F /  9.8 °C 47.5 °F /  8.6 °C 29.7in /  1006.8hPa ENE 2mph /  3.2km/h 5mph /  8km/h 92% 0in /  0.0mm 39 W/m2
07:56 49.6 °F /  9.8 °C 47.5 °F /  8.6 °C 29.7in /  1006.8hPa ENE 2mph /  3.2km/h 3mph /  4.8km/h 92% 0in /  0.0mm 47 W/m2
08:01 49.8 °F /  9.9 °C 47.7 °F /  8.7 °C 29.7in /  1006.8hPa ENE 0.9mph /  1.4km/h 2mph /  3.2km/h 92% 0in /  0.0mm 35 W/m2
08:06 49.8 °F /  9.9 °C 47.7 °F /  8.7 °C 29.7in /  1006.8hPa East 2.9mph /  4.7km/h 4mph /  6.4km/h 92% 0in /  0.0mm 47 W/m2
08:11 49.8 °F /  9.9 °C 47.7 °F /  8.7 °C 29.7in /  1006.8hPa East 2mph /  3.2km/h 5mph /  8km/h 92% 0in /  0.0mm 74 W/m2
08:16 49.8 °F /  9.9 °C 47.7 °F /  8.7 °C 29.7in /  1006.8hPa NE 0.9mph /  1.4km/h 2mph /  3.2km/h 92% 0in /  0.0mm 53 W/m2
08:21 49.8 °F /  9.9 °C 47.7 °F /  8.7 °C 29.7in /  1006.8hPa North 2.9mph /  4.7km/h 5mph /  8km/h 92% 0in /  0.0mm 63 W/m2
08:26 49.8 °F /  9.9 °C 47.7 °F /  8.7 °C 29.7in /  1006.8hPa NE 0.9mph /  1.4km/h 2mph /  3.2km/h 92% 0in /  0.0mm 77 W/m2
08:31 49.8 °F /  9.9 °C 47.7 °F /  8.7 °C 29.7in /  1006.8hPa NE 0.9mph /  1.4km/h 2mph /  3.2km/h 92% 0in /  0.0mm 83 W/m2
08:36 50 °F /  10 °C 47.8 °F /  8.8 °C 29.7in /  1006.8hPa NNE 0.9mph /  1.4km/h 2mph /  3.2km/h 92% 0in /  0.0mm 84 W/m2
08:41 50.2 °F /  10.1 °C 48 °F /  8.9 °C 29.7in /  1006.8hPa WNW 6mph /  9.7km/h 6mph /  9.7km/h 92% 0in /  0.0mm 141 W/m2
08:46 50.2 °F /  10.1 °C 47.7 °F /  8.7 °C 29.7in /  1006.8hPa NW 2mph /  3.2km/h 3mph /  4.8km/h 91% 0in /  0.0mm 137 W/m2
08:51 50.2 °F /  10.1 °C 47.7 °F /  8.7 °C 29.7in /  1006.4hPa Calm   2mph /  3.2km/h 91% 0in /  0.0mm 114 W/m2
08:56 50.4 °F /  10.2 °C 47.8 °F /  8.8 °C 29.7in /  1006.8hPa NNW 2.9mph /  4.7km/h 3mph /  4.8km/h 91% 0in /  0.0mm 88 W/m2
09:01 50.4 °F /  10.2 °C 47.5 °F /  8.6 °C 29.7in /  1006.4hPa Calm   2mph /  3.2km/h 90% 0in /  0.0mm 69 W/m2
09:06 50.4 °F /  10.2 °C 47.5 °F /  8.6 °C 29.7in /  1006.4hPa NNE 0.9mph /  1.4km/h 3mph /  4.8km/h 90% 0in /  0.0mm 121 W/m2
09:11 50.5 °F /  10.3 °C 47.7 °F /  8.7 °C 29.7in /  1006.4hPa Calm   1mph /  1.6km/h 90% 0in /  0.0mm 130 W/m2
09:16 50.7 °F /  10.4 °C 47.8 °F /  8.8 °C 29.7in /  1006.4hPa WNW 2mph /  3.2km/h 3mph /  4.8km/h 90% 0in /  0.0mm 213 W/m2
09:21 50.9 °F /  10.5 °C 48 °F /  8.9 °C 29.7in /  1006.4hPa Calm   3mph /  4.8km/h 90% 0in /  0.0mm 202 W/m2
09:26 51.3 °F /  10.7 °C 48.4 °F /  9.1 °C 29.7in /  1006.4hPa North 2.9mph /  4.7km/h 3mph /  4.8km/h 90% 0in /  0.0mm 230 W/m2
09:31 51.3 °F /  10.7 °C 48.2 °F /  9 °C 29.7in /  1006.4hPa NNE 0.9mph /  1.4km/h 3mph /  4.8km/h 89% 0in /  0.0mm 98 W/m2
09:36 51.4 °F /  10.8 °C 48.6 °F /  9.2 °C 29.7in /  1006.4hPa NW 2mph /  3.2km/h 3mph /  4.8km/h 90% 0in /  0.0mm 79 W/m2
09:41 51.4 °F /  10.8 °C 48.4 °F /  9.1 °C 29.7in /  1006.4hPa SE 2.9mph /  4.7km/h 3mph /  4.8km/h 89% 0in /  0.0mm 137 W/m2
09:46 51.4 °F /  10.8 °C 48.4 °F /  9.1 °C 29.7in /  1006.4hPa NE 2mph /  3.2km/h 3mph /  4.8km/h 89% 0in /  0.0mm 255 W/m2
09:51 51.6 °F /  10.9 °C 48.7 °F /  9.3 °C 29.7in /  1006.1hPa North 0.9mph /  1.4km/h 4mph /  6.4km/h 90% 0in /  0.0mm 308 W/m2
09:56 52 °F /  11.1 °C 49.1 °F /  9.5 °C 29.7in /  1006.1hPa NE 0.9mph /  1.4km/h 5mph /  8km/h 90% 0in /  0.0mm 250 W/m2
10:01 52.2 °F /  11.2 °C 49.1 °F /  9.5 °C 29.7in /  1006.1hPa Calm   3mph /  4.8km/h 89% 0in /  0.0mm 248 W/m2
10:06 52.3 °F /  11.3 °C 48.9 °F /  9.4 °C 29.7in /  1006.1hPa North 2mph /  3.2km/h 3mph /  4.8km/h 88% 0in /  0.0mm 211 W/m2
10:11 52.3 °F /  11.3 °C 48.9 °F /  9.4 °C 29.7in /  1006.1hPa Calm   2mph /  3.2km/h 88% 0in /  0.0mm 250 W/m2
10:16 52.5 °F /  11.4 °C 48.7 °F /  9.3 °C 29.7in /  1005.8hPa North 0.9mph /  1.4km/h 2mph /  3.2km/h 87% 0in /  0.0mm 334 W/m2
10:21 52.7 °F /  11.5 °C 48.9 °F /  9.4 °C 29.7in /  1006.1hPa NW 0.9mph /  1.4km/h 5mph /  8km/h 87% 0in /  0.0mm 232 W/m2
10:26 52.5 °F /  11.4 °C 48.4 °F /  9.1 °C 29.7in /  1006.1hPa NNW 2mph /  3.2km/h 3mph /  4.8km/h 86% 0in /  0.0mm 197 W/m2
10:31 52.5 °F /  11.4 °C 48.2 °F /  9 °C 29.7in /  1005.8hPa Calm   9mph /  14.5km/h 85% 0in /  0.0mm 206 W/m2
10:36 52.5 °F /  11.4 °C 48.2 °F /  9 °C 29.7in /  1006.1hPa SW 2mph /  3.2km/h 4mph /  6.4km/h 85% 0in /  0.0mm 234 W/m2
10:41 52.5 °F /  11.4 °C 48.4 °F /  9.1 °C 29.7in /  1006.1hPa North 0.9mph /  1.4km/h 7mph /  11.3km/h 86% 0in /  0.0mm 255 W/m2
10:46 52.9 °F /  11.6 °C 48.7 °F /  9.3 °C 29.7in /  1005.8hPa ENE 2.9mph /  4.7km/h 3mph /  4.8km/h 86% 0in /  0.0mm 250 W/m2
10:51 53.2 °F /  11.8 °C 48.9 °F /  9.4 °C 29.7in /  1005.8hPa West 2.9mph /  4.7km/h 4mph /  6.4km/h 85% 0in /  0.0mm 323 W/m2
10:56 53.4 °F /  11.9 °C 48.7 °F /  9.3 °C 29.7in /  1005.8hPa WNW 2mph /  3.2km/h 4mph /  6.4km/h 84% 0in /  0.0mm 371 W/m2
11:01 53.8 °F /  12.1 °C 49.1 °F /  9.5 °C 29.7in /  1005.8hPa NE 2mph /  3.2km/h 3mph /  4.8km/h 84% 0in /  0.0mm 359 W/m2
11:06 53.8 °F /  12.1 °C 48.7 °F /  9.3 °C 29.7in /  1005.8hPa NW 2.9mph /  4.7km/h 6mph /  9.7km/h 83% 0in /  0.0mm 318 W/m2
11:11 54 °F /  12.2 °C 48.9 °F /  9.4 °C 29.7in /  1005.8hPa Calm   4mph /  6.4km/h 83% 0in /  0.0mm 295 W/m2
11:16 54 °F /  12.2 °C 48.2 °F /  9 °C 29.7in /  1005.8hPa Calm   4mph /  6.4km/h 81% 0in /  0.0mm 148 W/m2
11:26 53.8 °F /  12.1 °C 47.5 °F /  8.6 °C 29.7in /  1005.8hPa SE 0.9mph /  1.4km/h 4mph /  6.4km/h 79% 0in /  0.0mm 104 W/m2
11:31 53.4 °F /  11.9 °C 47.1 °F /  8.4 °C 29.7in /  1005.8hPa NE 2.9mph /  4.7km/h 4mph /  6.4km/h 79% 0in /  0.0mm 104 W/m2
11:36 53.2 °F /  11.8 °C 47.3 °F /  8.5 °C 29.7in /  1005.8hPa Calm   3mph /  4.8km/h 80% 0in /  0.0mm 107 W/m2
11:41 53.1 °F /  11.7 °C 47.3 °F /  8.5 °C 29.7in /  1005.4hPa NE 4mph /  6.4km/h 5mph /  8km/h 81% 0in /  0.0mm 167 W/m2
11:46 52.3 °F /  11.3 °C 46.9 °F /  8.3 °C 29.7in /  1005.4hPa NW 0.9mph /  1.4km/h 7mph /  11.3km/h 82% 0in /  0.0mm 218 W/m2
11:51 52.2 °F /  11.2 °C 47.1 °F /  8.4 °C 29.7in /  1005.4hPa North 0.9mph /  1.4km/h 3mph /  4.8km/h 83% 0in /  0.0mm 251 W/m2
11:56 52.3 °F /  11.3 °C 47.7 °F /  8.7 °C 29.7in /  1005.4hPa NW 2mph /  3.2km/h 7mph /  11.3km/h 84% 0in /  0.0mm 272 W/m2
12:01 52.5 °F /  11.4 °C 47.5 °F /  8.6 °C 29.7in /  1005.1hPa Calm   3mph /  4.8km/h 83% 0.01in /  0.2mm 315 W/m2
12:06 52.7 °F /  11.5 °C 48 °F /  8.9 °C 29.7in /  1005.1hPa WSW 2mph /  3.2km/h 5mph /  8km/h 84% 0.01in /  0.2mm 357 W/m2
12:11 53.1 °F /  11.7 °C 48.7 °F /  9.3 °C 29.7in /  1005.1hPa Calm   2mph /  3.2km/h 85% 0.01in /  0.2mm 376 W/m2
12:16 53.6 °F /  12 °C 49.3 °F /  9.6 °C 29.7in /  1004.7hPa East 2.9mph /  4.7km/h 6mph /  9.7km/h 85% 0.01in /  0.2mm 265 W/m2
12:21 53.8 °F /  12.1 °C 48.7 °F /  9.3 °C 29.7in /  1004.7hPa East 2.9mph /  4.7km/h 5mph /  8km/h 83% 0.01in /  0.2mm 478 W/m2
12:26 54.1 °F /  12.3 °C 48.7 °F /  9.3 °C 29.7in /  1004.7hPa SSW 0.9mph /  1.4km/h 2mph /  3.2km/h 82% 0.01in /  0.2mm 327 W/m2
12:31 54.5 °F /  12.5 °C 48.7 °F /  9.3 °C 29.7in /  1004.7hPa ENE 2.9mph /  4.7km/h 3mph /  4.8km/h 81% 0.01in /  0.2mm 200 W/m2
12:36 54.3 °F /  12.4 °C 48.2 °F /  9 °C 29.7in /  1004.4hPa SSE 0.9mph /  1.4km/h 6mph /  9.7km/h 80% 0.01in /  0.2mm 192 W/m2
12:41 54.1 °F /  12.3 °C 48 °F /  8.9 °C 29.7in /  1004.4hPa WNW 0.9mph /  1.4km/h 2mph /  3.2km/h 80% 0.01in /  0.2mm 105 W/m2
12:46 54.1 °F /  12.3 °C 48 °F /  8.9 °C 29.7in /  1004.4hPa East 2.9mph /  4.7km/h 5mph /  8km/h 80% 0.01in /  0.2mm 130 W/m2
12:51 54 °F /  12.2 °C 48 °F /  8.9 °C 29.7in /  1004.7hPa East 0.9mph /  1.4km/h 4mph /  6.4km/h 80% 0.01in /  0.2mm 105 W/m2
12:56 53.6 °F /  12 °C 47.7 °F /  8.7 °C 29.7in /  1004.7hPa WNW 2mph /  3.2km/h 2mph /  3.2km/h 80% 0.01in /  0.2mm 102 W/m2
13:01 53.2 °F /  11.8 °C 47.3 °F /  8.5 °C 29.7in /  1004.4hPa ENE 4mph /  6.4km/h 5mph /  8km/h 80% 0in /  0.0mm 102 W/m2
13:06 52.9 °F /  11.6 °C 47.3 °F /  8.5 °C 29.7in /  1004.4hPa ESE 0.9mph /  1.4km/h 8mph /  12.9km/h 81% 0in /  0.0mm 162 W/m2
13:11 52.7 °F /  11.5 °C 47.3 °F /  8.5 °C 29.7in /  1004.7hPa WNW 0.9mph /  1.4km/h 3mph /  4.8km/h 82% 0in /  0.0mm 167 W/m2
13:17 52.5 °F /  11.4 °C 47.5 °F /  8.6 °C 29.7in /  1004.4hPa East 0.9mph /  1.4km/h 5mph /  8km/h 83% 0.01in /  0.2mm 260 W/m2
13:22 52.5 °F /  11.4 °C 47.5 °F /  8.6 °C 29.7in /  1004.4hPa Calm   3mph /  4.8km/h 83% 0.01in /  0.2mm 239 W/m2
13:27 52.5 °F /  11.4 °C 47.8 °F /  8.8 °C 29.7in /  1004.4hPa East 4mph /  6.4km/h 8mph /  12.9km/h 84% 0.02in /  0.5mm 258 W/m2
13:32 52.5 °F /  11.4 °C 47.8 °F /  8.8 °C 29.7in /  1004.1hPa ENE 2mph /  3.2km/h 3mph /  4.8km/h 84% 0.02in /  0.5mm 371 W/m2
13:37 52.7 °F /  11.5 °C 48.4 °F /  9.1 °C 29.7in /  1004.1hPa NNW 0.9mph /  1.4km/h 8mph /  12.9km/h 85% 0.02in /  0.5mm 207 W/m2
13:42 52.7 °F /  11.5 °C 48 °F /  8.9 °C 29.7in /  1004.1hPa NW 4mph /  6.4km/h 4mph /  6.4km/h 84% 0.02in /  0.5mm 183 W/m2
13:47 52.7 °F /  11.5 °C 47.7 °F /  8.7 °C 29.7in /  1004.1hPa East 2mph /  3.2km/h 7mph /  11.3km/h 83% 0.02in /  0.5mm 195 W/m2
13:52 52.7 °F /  11.5 °C 48.4 °F /  9.1 °C 29.7in /  1004.1hPa Calm   3mph /  4.8km/h 85% 0.02in /  0.5mm 181 W/m2
13:57 52.9 °F /  11.6 °C 48.6 °F /  9.2 °C 29.7in /  1004.1hPa North 0.9mph /  1.4km/h 4mph /  6.4km/h 85% 0.02in /  0.5mm 155 W/m2
14:02 52.7 °F /  11.5 °C 48.4 °F /  9.1 °C 29.6in /  1003.7hPa East 2.9mph /  4.7km/h 4mph /  6.4km/h 85% 0.02in /  0.5mm 274 W/m2
14:07 52.7 °F /  11.5 °C 48.4 °F /  9.1 °C 29.6in /  1003.7hPa NNE 2mph /  3.2km/h 4mph /  6.4km/h 85% 0.02in /  0.5mm 267 W/m2
14:12 52.9 °F /  11.6 °C 48.6 °F /  9.2 °C 29.6in /  1003.7hPa ESE 2.9mph /  4.7km/h 3mph /  4.8km/h 85% 0.02in /  0.5mm 216 W/m2
14:17 52.9 °F /  11.6 °C 48.6 °F /  9.2 °C 29.6in /  1003.7hPa East 0.9mph /  1.4km/h 4mph /  6.4km/h 85% 0.02in /  0.5mm 146 W/m2
14:22 52.7 °F /  11.5 °C 48.4 °F /  9.1 °C 29.6in /  1003.7hPa East 0.9mph /  1.4km/h 5mph /  8km/h 85% 0.02in /  0.5mm 151 W/m2
14:27 52.5 °F /  11.4 °C 48.2 °F /  9 °C 29.6in /  1003.4hPa East 2mph /  3.2km/h 7mph /  11.3km/h 85% 0.01in /  0.2mm 178 W/m2
14:32 52.5 °F /  11.4 °C 48.4 °F /  9.1 °C 29.6in /  1003.4hPa Calm   3mph /  4.8km/h 86% 0.01in /  0.2mm 134 W/m2
14:37 52.5 °F /  11.4 °C 48.4 °F /  9.1 °C 29.6in /  1003.4hPa NE 2.9mph /  4.7km/h 7mph /  11.3km/h 86% 0.01in /  0.2mm 144 W/m2
14:42 52.7 °F /  11.5 °C 48.9 °F /  9.4 °C 29.6in /  1003.0hPa Calm   2mph /  3.2km/h 87% 0.01in /  0.2mm 316 W/m2
14:47 53.1 °F /  11.7 °C 48.9 °F /  9.4 °C 29.6in /  1003.0hPa ENE 0.9mph /  1.4km/h 4mph /  6.4km/h 86% 0.01in /  0.2mm 199 W/m2
14:52 53.1 °F /  11.7 °C 48.9 °F /  9.4 °C 29.6in /  1003.0hPa Calm   5mph /  8km/h 86% 0.01in /  0.2mm 69 W/m2
14:57 53.1 °F /  11.7 °C 48.9 °F /  9.4 °C 29.6in /  1003.0hPa ENE 2mph /  3.2km/h 4mph /  6.4km/h 86% 0.01in /  0.2mm 86 W/m2
15:02 53.1 °F /  11.7 °C 48.9 °F /  9.4 °C 29.6in /  1003.0hPa NE 2mph /  3.2km/h 3mph /  4.8km/h 86% 0.01in /  0.2mm 160 W/m2
15:07 53.2 °F /  11.8 °C 49.1 °F /  9.5 °C 29.6in /  1003.0hPa ENE 2mph /  3.2km/h 7mph /  11.3km/h 86% 0.01in /  0.2mm 207 W/m2
15:12 53.4 °F /  11.9 °C 49.1 °F /  9.5 °C 29.6in /  1003.0hPa NE 0.9mph /  1.4km/h 3mph /  4.8km/h 85% 0.01in /  0.2mm 185 W/m2
15:17 53.4 °F /  11.9 °C 49.1 °F /  9.5 °C 29.6in /  1003.0hPa South 2.9mph /  4.7km/h 9mph /  14.5km/h 85% 0in /  0.0mm 113 W/m2
15:22 53.6 °F /  12 °C 49.5 °F /  9.7 °C 29.6in /  1003.0hPa WSW 2mph /  3.2km/h 7mph /  11.3km/h 86% 0in /  0.0mm 218 W/m2
15:33 53.8 °F /  12.1 °C 49.6 °F /  9.8 °C 29.6in /  1002.7hPa West 10.1mph /  16.3km/h 10mph /  16.1km/h 86% 0in /  0.0mm 392 W/m2
15:38 54.3 °F /  12.4 °C 49.8 °F /  9.9 °C 29.6in /  1002.4hPa NW 0.9mph /  1.4km/h 7mph /  11.3km/h 85% 0in /  0.0mm 995 W/m2
Juneau County Weather
Compliments of Weather Underground - 2 mb